Arcata, California
Current Conditions -  °F | °C
As of 3:53 AM on Thursday 23 Oct 2014 (Local Time) from KACV Reporting Station
Light Rain Light Rain  
Wind Chill: 60°   Ceiling: 3200
Heat Index: 60°   Visibility: 7mi
Dew Point: 57°   Wind: 5mph
Humidity: 90%   Direction: 120°ESE
Pressure: 29.89"   Gusts: NA
Location:  40.87°N, 124.08°W
Report Text: KACV 231053Z AUTO 12004KT 7SM -RA OVC032 16/14 A2989 RMK AO2 SLP124 P0003 T01560139
Loading
Personal Weather Stations






























Interactive Weather Map
Tropical Storm Tracking
New forecast layout! Learn more

10-Day Weather Forecast

Advertisements
Track Severe Weather on mobile